sensor_id;sensor_type;location;lat;lon;timestamp;temperature;humidity
45807;DHT22;31507;51.494;7.518;2024-01-15T00:02:03;0.10;99.90
45807;DHT22;31507;51.494;7.518;2024-01-15T00:04:28;0.10;99.90
45807;DHT22;31507;51.494;7.518;2024-01-15T00:06:54;0.10;99.90
45807;DHT22;31507;51.494;7.518;2024-01-15T00:09:19;0.10;99.90
45807;DHT22;31507;51.494;7.518;2024-01-15T00:11:45;0.10;99.90
45807;DHT22;31507;51.494;7.518;2024-01-15T00:14:11;0.10;99.90
45807;DHT22;31507;51.494;7.518;2024-01-15T00:16:40;0.10;99.90
45807;DHT22;31507;51.494;7.518;2024-01-15T00:19:05;0.10;99.90
45807;DHT22;31507;51.494;7.518;2024-01-15T00:21:31;0.10;99.90
45807;DHT22;31507;51.494;7.518;2024-01-15T00:23:56;0.10;99.90
45807;DHT22;31507;51.494;7.518;2024-01-15T00:26:22;0.10;99.90
45807;DHT22;31507;51.494;7.518;2024-01-15T00:28:48;0.10;99.90
45807;DHT22;31507;51.494;7.518;2024-01-15T00:31:15;0.10;99.90
45807;DHT22;31507;51.494;7.518;2024-01-15T00:33:41;0.10;99.90
45807;DHT22;31507;51.494;7.518;2024-01-15T00:36:06;0.10;99.90
45807;DHT22;31507;51.494;7.518;2024-01-15T00:38:32;0.10;99.90
45807;DHT22;31507;51.494;7.518;2024-01-15T00:40:57;0.20;99.90
45807;DHT22;31507;51.494;7.518;2024-01-15T00:43:23;0.10;99.90
45807;DHT22;31507;51.494;7.518;2024-01-15T00:45:48;0.20;99.90
45807;DHT22;31507;51.494;7.518;2024-01-15T00:48:14;0.20;99.90
45807;DHT22;31507;51.494;7.518;2024-01-15T00:50:39;0.20;99.90
45807;DHT22;31507;51.494;7.518;2024-01-15T00:53:05;0.20;99.90
45807;DHT22;31507;51.494;7.518;2024-01-15T00:55:30;0.20;99.90
45807;DHT22;31507;51.494;7.518;2024-01-15T00:57:56;0.20;99.90
45807;DHT22;31507;51.494;7.518;2024-01-15T01:00:21;0.20;99.90
45807;DHT22;31507;51.494;7.518;2024-01-15T01:02:47;0.20;99.90
45807;DHT22;31507;51.494;7.518;2024-01-15T01:05:12;0.30;99.90
45807;DHT22;31507;51.494;7.518;2024-01-15T01:07:38;0.30;99.90
45807;DHT22;31507;51.494;7.518;2024-01-15T01:10:03;0.30;99.90
45807;DHT22;31507;51.494;7.518;2024-01-15T01:12:29;0.30;99.90
45807;DHT22;31507;51.494;7.518;2024-01-15T01:14:55;0.30;99.90
45807;DHT22;31507;51.494;7.518;2024-01-15T01:17:21;0.30;99.90
45807;DHT22;31507;51.494;7.518;2024-01-15T01:19:46;0.30;99.90
45807;DHT22;31507;51.494;7.518;2024-01-15T01:22:12;0.30;99.90
45807;DHT22;31507;51.494;7.518;2024-01-15T01:24:37;0.30;99.90
45807;DHT22;31507;51.494;7.518;2024-01-15T01:27:03;0.30;99.90
45807;DHT22;31507;51.494;7.518;2024-01-15T01:29:28;0.30;99.90
45807;DHT22;31507;51.494;7.518;2024-01-15T01:31:54;0.30;99.90
45807;DHT22;31507;51.494;7.518;2024-01-15T01:34:20;0.30;99.90
45807;DHT22;31507;51.494;7.518;2024-01-15T01:36:45;0.30;99.90
45807;DHT22;31507;51.494;7.518;2024-01-15T01:39:10;0.30;99.90
45807;DHT22;31507;51.494;7.518;2024-01-15T01:41:37;0.30;99.90
45807;DHT22;31507;51.494;7.518;2024-01-15T01:44:03;0.30;99.90
45807;DHT22;31507;51.494;7.518;2024-01-15T01:46:29;0.30;99.90
45807;DHT22;31507;51.494;7.518;2024-01-15T01:48:57;0.30;99.90
45807;DHT22;31507;51.494;7.518;2024-01-15T01:51:23;0.30;99.90
45807;DHT22;31507;51.494;7.518;2024-01-15T01:53:49;0.30;99.90
45807;DHT22;31507;51.494;7.518;2024-01-15T01:56:15;0.30;99.90
45807;DHT22;31507;51.494;7.518;2024-01-15T01:58:41;0.30;99.90
45807;DHT22;31507;51.494;7.518;2024-01-15T02:01:07;0.30;99.90
45807;DHT22;31507;51.494;7.518;2024-01-15T02:03:33;0.30;99.90
45807;DHT22;31507;51.494;7.518;2024-01-15T02:05:59;0.30;99.90
45807;DHT22;31507;51.494;7.518;2024-01-15T02:08:25;0.30;99.90
45807;DHT22;31507;51.494;7.518;2024-01-15T02:10:50;0.30;99.90
45807;DHT22;31507;51.494;7.518;2024-01-15T02:13:16;0.30;99.90
45807;DHT22;31507;51.494;7.518;2024-01-15T02:15:42;0.30;99.90
45807;DHT22;31507;51.494;7.518;2024-01-15T02:18:08;0.30;99.90
45807;DHT22;31507;51.494;7.518;2024-01-15T02:20:33;0.40;99.90
45807;DHT22;31507;51.494;7.518;2024-01-15T02:25:30;0.30;99.90
45807;DHT22;31507;51.494;7.518;2024-01-15T02:27:56;0.30;99.90
45807;DHT22;31507;51.494;7.518;2024-01-15T02:30:21;0.30;99.90
45807;DHT22;31507;51.494;7.518;2024-01-15T02:32:47;0.40;99.90
45807;DHT22;31507;51.494;7.518;2024-01-15T02:35:13;0.30;99.90
45807;DHT22;31507;51.494;7.518;2024-01-15T02:37:38;0.30;99.90
45807;DHT22;31507;51.494;7.518;2024-01-15T02:40:04;0.30;99.90
45807;DHT22;31507;51.494;7.518;2024-01-15T02:42:30;0.30;99.90
45807;DHT22;31507;51.494;7.518;2024-01-15T02:44:55;0.40;99.90
45807;DHT22;31507;51.494;7.518;2024-01-15T02:47:21;0.40;99.90
45807;DHT22;31507;51.494;7.518;2024-01-15T02:49:46;0.40;99.90
45807;DHT22;31507;51.494;7.518;2024-01-15T02:52:12;0.30;99.90
45807;DHT22;31507;51.494;7.518;2024-01-15T02:54:37;0.30;99.90
45807;DHT22;31507;51.494;7.518;2024-01-15T02:57:03;0.30;99.90
45807;DHT22;31507;51.494;7.518;2024-01-15T02:59:28;0.30;99.90
45807;DHT22;31507;51.494;7.518;2024-01-15T03:01:54;0.30;99.90
45807;DHT22;31507;51.494;7.518;2024-01-15T03:04:19;0.40;99.90
45807;DHT22;31507;51.494;7.518;2024-01-15T03:06:45;0.30;99.90
45807;DHT22;31507;51.494;7.518;2024-01-15T03:09:10;0.40;99.90
45807;DHT22;31507;51.494;7.518;2024-01-15T03:11:39;0.40;99.90
45807;DHT22;31507;51.494;7.518;2024-01-15T03:14:05;0.40;99.90
45807;DHT22;31507;51.494;7.518;2024-01-15T03:16:30;0.40;99.90
45807;DHT22;31507;51.494;7.518;2024-01-15T03:18:56;0.40;99.90
45807;DHT22;31507;51.494;7.518;2024-01-15T03:21:21;0.40;99.90
45807;DHT22;31507;51.494;7.518;2024-01-15T03:23:47;0.40;99.90
45807;DHT22;31507;51.494;7.518;2024-01-15T03:26:12;0.40;99.90
45807;DHT22;31507;51.494;7.518;2024-01-15T03:28:38;0.40;99.90
45807;DHT22;31507;51.494;7.518;2024-01-15T03:31:03;0.40;99.90
45807;DHT22;31507;51.494;7.518;2024-01-15T03:33:29;0.40;99.90
45807;DHT22;31507;51.494;7.518;2024-01-15T03:35:54;0.40;99.90
45807;DHT22;31507;51.494;7.518;2024-01-15T03:38:20;0.40;99.90
45807;DHT22;31507;51.494;7.518;2024-01-15T03:40:45;0.40;99.90
45807;DHT22;31507;51.494;7.518;2024-01-15T03:43:12;0.40;99.90
45807;DHT22;31507;51.494;7.518;2024-01-15T03:45:37;0.40;99.90
45807;DHT22;31507;51.494;7.518;2024-01-15T03:48:03;0.40;99.90
45807;DHT22;31507;51.494;7.518;2024-01-15T03:50:28;0.40;99.90
45807;DHT22;31507;51.494;7.518;2024-01-15T03:52:54;0.40;99.90
45807;DHT22;31507;51.494;7.518;2024-01-15T03:55:19;0.40;99.90
45807;DHT22;31507;51.494;7.518;2024-01-15T03:57:45;0.40;99.90
45807;DHT22;31507;51.494;7.518;2024-01-15T04:00:10;0.40;99.90
45807;DHT22;31507;51.494;7.518;2024-01-15T04:02:36;0.40;99.90
45807;DHT22;31507;51.494;7.518;2024-01-15T04:05:02;0.40;99.90
45807;DHT22;31507;51.494;7.518;2024-01-15T04:07:27;0.40;99.90
45807;DHT22;31507;51.494;7.518;2024-01-15T04:09:53;0.40;99.90
45807;DHT22;31507;51.494;7.518;2024-01-15T04:12:18;0.40;99.90
45807;DHT22;31507;51.494;7.518;2024-01-15T04:14:44;0.50;99.90
45807;DHT22;31507;51.494;7.518;2024-01-15T04:17:09;0.50;99.90
45807;DHT22;31507;51.494;7.518;2024-01-15T04:19:35;0.50;99.90
45807;DHT22;31507;51.494;7.518;2024-01-15T04:22:00;0.50;99.90
45807;DHT22;31507;51.494;7.518;2024-01-15T04:24:26;0.50;99.90
45807;DHT22;31507;51.494;7.518;2024-01-15T04:26:51;0.50;99.90
45807;DHT22;31507;51.494;7.518;2024-01-15T04:29:17;0.50;99.90
45807;DHT22;31507;51.494;7.518;2024-01-15T04:31:42;0.50;99.90
45807;DHT22;31507;51.494;7.518;2024-01-15T04:34:08;0.50;99.90
45807;DHT22;31507;51.494;7.518;2024-01-15T04:36:38;0.50;99.90
45807;DHT22;31507;51.494;7.518;2024-01-15T04:39:03;0.50;99.90
45807;DHT22;31507;51.494;7.518;2024-01-15T04:41:30;0.50;99.90
45807;DHT22;31507;51.494;7.518;2024-01-15T04:43:55;0.50;99.90
45807;DHT22;31507;51.494;7.518;2024-01-15T04:46:21;0.50;99.90
45807;DHT22;31507;51.494;7.518;2024-01-15T04:48:46;0.60;99.90
45807;DHT22;31507;51.494;7.518;2024-01-15T04:51:12;0.60;99.90
45807;DHT22;31507;51.494;7.518;2024-01-15T04:53:37;0.60;99.90
45807;DHT22;31507;51.494;7.518;2024-01-15T04:56:03;0.60;99.90
45807;DHT22;31507;51.494;7.518;2024-01-15T04:58:28;0.50;99.90
45807;DHT22;31507;51.494;7.518;2024-01-15T05:00:54;0.50;99.90
45807;DHT22;31507;51.494;7.518;2024-01-15T05:03:20;0.50;99.90
45807;DHT22;31507;51.494;7.518;2024-01-15T05:05:45;0.60;99.90
45807;DHT22;31507;51.494;7.518;2024-01-15T05:08:11;0.60;99.90
45807;DHT22;31507;51.494;7.518;2024-01-15T05:10:36;0.60;99.90
45807;DHT22;31507;51.494;7.518;2024-01-15T05:13:02;0.60;99.90
45807;DHT22;31507;51.494;7.518;2024-01-15T05:15:27;0.60;99.90
45807;DHT22;31507;51.494;7.518;2024-01-15T05:17:53;0.60;99.90
45807;DHT22;31507;51.494;7.518;2024-01-15T05:20:19;0.60;99.90
45807;DHT22;31507;51.494;7.518;2024-01-15T05:22:44;0.60;99.90
45807;DHT22;31507;51.494;7.518;2024-01-15T05:25:10;0.60;99.90
45807;DHT22;31507;51.494;7.518;2024-01-15T05:27:35;0.60;99.90
45807;DHT22;31507;51.494;7.518;2024-01-15T05:30:01;0.60;99.90
45807;DHT22;31507;51.494;7.518;2024-01-15T05:32:26;0.60;99.90
45807;DHT22;31507;51.494;7.518;2024-01-15T05:34:52;0.60;99.90
45807;DHT22;31507;51.494;7.518;2024-01-15T05:37:17;0.60;99.90
45807;DHT22;31507;51.494;7.518;2024-01-15T05:39:43;0.60;99.90
45807;DHT22;31507;51.494;7.518;2024-01-15T05:42:08;0.60;99.90
45807;DHT22;31507;51.494;7.518;2024-01-15T05:44:33;0.60;99.90
45807;DHT22;31507;51.494;7.518;2024-01-15T05:46:59;0.70;99.90
45807;DHT22;31507;51.494;7.518;2024-01-15T05:49:24;0.60;99.90
45807;DHT22;31507;51.494;7.518;2024-01-15T05:51:50;0.60;99.90
45807;DHT22;31507;51.494;7.518;2024-01-15T05:54:18;0.60;99.90
45807;DHT22;31507;51.494;7.518;2024-01-15T05:56:43;0.60;99.90
45807;DHT22;31507;51.494;7.518;2024-01-15T05:59:09;0.60;99.90
45807;DHT22;31507;51.494;7.518;2024-01-15T06:01:34;0.60;99.90
45807;DHT22;31507;51.494;7.518;2024-01-15T06:04:00;0.60;99.90
45807;DHT22;31507;51.494;7.518;2024-01-15T06:06:25;0.60;99.90
45807;DHT22;31507;51.494;7.518;2024-01-15T06:08:51;0.60;99.90
45807;DHT22;31507;51.494;7.518;2024-01-15T06:11:16;0.60;99.90
45807;DHT22;31507;51.494;7.518;2024-01-15T06:13:42;0.60;99.90
45807;DHT22;31507;51.494;7.518;2024-01-15T06:16:17;0.60;99.90
45807;DHT22;31507;51.494;7.518;2024-01-15T06:18:44;0.60;99.90
45807;DHT22;31507;51.494;7.518;2024-01-15T06:21:12;0.60;99.90
45807;DHT22;31507;51.494;7.518;2024-01-15T06:23:39;0.60;99.90
45807;DHT22;31507;51.494;7.518;2024-01-15T06:26:05;0.60;99.90
45807;DHT22;31507;51.494;7.518;2024-01-15T06:28:30;0.60;99.90
45807;DHT22;31507;51.494;7.518;2024-01-15T06:30:56;0.60;99.90
45807;DHT22;31507;51.494;7.518;2024-01-15T06:33:22;0.60;99.90
45807;DHT22;31507;51.494;7.518;2024-01-15T06:35:47;0.60;99.90
45807;DHT22;31507;51.494;7.518;2024-01-15T06:38:13;0.60;99.90
45807;DHT22;31507;51.494;7.518;2024-01-15T06:40:38;0.60;99.90
45807;DHT22;31507;51.494;7.518;2024-01-15T06:43:06;0.50;99.90
45807;DHT22;31507;51.494;7.518;2024-01-15T06:45:32;0.50;99.90
45807;DHT22;31507;51.494;7.518;2024-01-15T06:47:57;0.50;99.90
45807;DHT22;31507;51.494;7.518;2024-01-15T06:50:23;0.60;99.90
45807;DHT22;31507;51.494;7.518;2024-01-15T06:52:49;0.60;99.90
45807;DHT22;31507;51.494;7.518;2024-01-15T06:55:14;0.60;99.90
45807;DHT22;31507;51.494;7.518;2024-01-15T06:57:40;0.60;99.90
45807;DHT22;31507;51.494;7.518;2024-01-15T07:00:05;0.60;99.90
45807;DHT22;31507;51.494;7.518;2024-01-15T07:02:33;0.60;99.90
45807;DHT22;31507;51.494;7.518;2024-01-15T07:04:58;0.60;99.90
45807;DHT22;31507;51.494;7.518;2024-01-15T07:07:24;0.60;99.90
45807;DHT22;31507;51.494;7.518;2024-01-15T07:09:50;0.60;99.90
45807;DHT22;31507;51.494;7.518;2024-01-15T07:12:17;0.70;99.90
45807;DHT22;31507;51.494;7.518;2024-01-15T07:14:43;0.70;99.90
45807;DHT22;31507;51.494;7.518;2024-01-15T07:17:08;0.70;99.90
45807;DHT22;31507;51.494;7.518;2024-01-15T07:19:34;0.70;99.90
45807;DHT22;31507;51.494;7.518;2024-01-15T07:21:59;0.70;99.90
45807;DHT22;31507;51.494;7.518;2024-01-15T07:24:25;0.70;99.90
45807;DHT22;31507;51.494;7.518;2024-01-15T07:26:51;0.70;99.90
45807;DHT22;31507;51.494;7.518;2024-01-15T07:29:16;0.70;99.90
45807;DHT22;31507;51.494;7.518;2024-01-15T07:31:47;0.70;99.90
45807;DHT22;31507;51.494;7.518;2024-01-15T07:34:12;0.70;99.90
45807;DHT22;31507;51.494;7.518;2024-01-15T07:36:38;0.70;99.90
45807;DHT22;31507;51.494;7.518;2024-01-15T07:39:03;0.70;99.90
45807;DHT22;31507;51.494;7.518;2024-01-15T07:41:29;0.70;99.90
45807;DHT22;31507;51.494;7.518;2024-01-15T07:43:55;0.70;99.90
45807;DHT22;31507;51.494;7.518;2024-01-15T07:46:20;0.70;99.90
45807;DHT22;31507;51.494;7.518;2024-01-15T07:48:46;0.70;99.90
45807;DHT22;31507;51.494;7.518;2024-01-15T07:51:11;0.70;99.90
45807;DHT22;31507;51.494;7.518;2024-01-15T07:53:37;0.70;99.90
45807;DHT22;31507;51.494;7.518;2024-01-15T07:56:02;0.70;99.90
45807;DHT22;31507;51.494;7.518;2024-01-15T07:58:28;0.70;99.90
45807;DHT22;31507;51.494;7.518;2024-01-15T08:00:53;0.80;99.90
45807;DHT22;31507;51.494;7.518;2024-01-15T08:03:19;0.80;99.90
45807;DHT22;31507;51.494;7.518;2024-01-15T08:05:45;0.80;99.90
45807;DHT22;31507;51.494;7.518;2024-01-15T08:08:10;0.80;99.90
45807;DHT22;31507;51.494;7.518;2024-01-15T08:10:36;0.80;99.90
45807;DHT22;31507;51.494;7.518;2024-01-15T08:13:01;0.80;99.90
45807;DHT22;31507;51.494;7.518;2024-01-15T08:15:27;0.70;99.90
45807;DHT22;31507;51.494;7.518;2024-01-15T08:17:52;0.70;99.90
45807;DHT22;31507;51.494;7.518;2024-01-15T08:20:18;0.70;99.90
45807;DHT22;31507;51.494;7.518;2024-01-15T08:22:43;0.60;99.90
45807;DHT22;31507;51.494;7.518;2024-01-15T08:25:09;0.60;99.90
45807;DHT22;31507;51.494;7.518;2024-01-15T08:27:34;0.60;99.90
45807;DHT22;31507;51.494;7.518;2024-01-15T08:30:00;0.50;99.90
45807;DHT22;31507;51.494;7.518;2024-01-15T08:32:25;0.50;99.90
45807;DHT22;31507;51.494;7.518;2024-01-15T08:34:51;0.50;99.90
45807;DHT22;31507;51.494;7.518;2024-01-15T08:37:17;0.50;99.90
45807;DHT22;31507;51.494;7.518;2024-01-15T08:39:43;0.50;99.90
45807;DHT22;31507;51.494;7.518;2024-01-15T08:42:08;0.50;99.90
45807;DHT22;31507;51.494;7.518;2024-01-15T08:44:34;0.50;99.90
45807;DHT22;31507;51.494;7.518;2024-01-15T08:46:59;0.40;99.90
45807;DHT22;31507;51.494;7.518;2024-01-15T08:49:25;0.40;99.90
45807;DHT22;31507;51.494;7.518;2024-01-15T08:51:50;0.30;99.90
45807;DHT22;31507;51.494;7.518;2024-01-15T08:54:16;0.30;99.90
45807;DHT22;31507;51.494;7.518;2024-01-15T08:56:43;0.30;99.90
45807;DHT22;31507;51.494;7.518;2024-01-15T08:59:08;0.20;99.90
45807;DHT22;31507;51.494;7.518;2024-01-15T09:01:34;0.20;99.90
45807;DHT22;31507;51.494;7.518;2024-01-15T09:04:00;0.20;99.90
45807;DHT22;31507;51.494;7.518;2024-01-15T09:06:26;0.20;99.90
45807;DHT22;31507;51.494;7.518;2024-01-15T09:08:51;0.20;99.90
45807;DHT22;31507;51.494;7.518;2024-01-15T09:11:17;0.30;99.90
45807;DHT22;31507;51.494;7.518;2024-01-15T09:13:42;0.30;99.90
45807;DHT22;31507;51.494;7.518;2024-01-15T09:16:08;0.30;99.90
45807;DHT22;31507;51.494;7.518;2024-01-15T09:18:33;0.30;99.90
45807;DHT22;31507;51.494;7.518;2024-01-15T09:20:59;0.30;99.90
45807;DHT22;31507;51.494;7.518;2024-01-15T09:23:24;0.30;99.90
45807;DHT22;31507;51.494;7.518;2024-01-15T09:25:49;0.40;99.90
45807;DHT22;31507;51.494;7.518;2024-01-15T09:28:17;0.40;99.90
45807;DHT22;31507;51.494;7.518;2024-01-15T09:30:43;0.40;99.90
45807;DHT22;31507;51.494;7.518;2024-01-15T09:33:10;0.40;99.90
45807;DHT22;31507;51.494;7.518;2024-01-15T09:35:35;0.40;99.90
45807;DHT22;31507;51.494;7.518;2024-01-15T09:38:01;0.40;99.90
45807;DHT22;31507;51.494;7.518;2024-01-15T09:40:28;0.40;99.90
45807;DHT22;31507;51.494;7.518;2024-01-15T09:42:54;0.40;99.90
45807;DHT22;31507;51.494;7.518;2024-01-15T09:45:20;0.40;99.90
45807;DHT22;31507;51.494;7.518;2024-01-15T09:47:45;0.40;99.90
45807;DHT22;31507;51.494;7.518;2024-01-15T09:50:11;0.30;99.90
45807;DHT22;31507;51.494;7.518;2024-01-15T09:52:36;0.30;99.90
45807;DHT22;31507;51.494;7.518;2024-01-15T09:55:02;0.30;99.90
45807;DHT22;31507;51.494;7.518;2024-01-15T09:57:28;0.30;99.90
45807;DHT22;31507;51.494;7.518;2024-01-15T09:59:54;0.30;99.90
45807;DHT22;31507;51.494;7.518;2024-01-15T10:02:20;0.30;99.90
45807;DHT22;31507;51.494;7.518;2024-01-15T10:04:45;0.30;99.90
45807;DHT22;31507;51.494;7.518;2024-01-15T10:07:14;0.30;99.90
45807;DHT22;31507;51.494;7.518;2024-01-15T10:09:40;0.30;99.90
45807;DHT22;31507;51.494;7.518;2024-01-15T10:12:06;0.30;99.90
45807;DHT22;31507;51.494;7.518;2024-01-15T10:14:32;0.30;99.90
45807;DHT22;31507;51.494;7.518;2024-01-15T10:16:58;0.30;99.90
45807;DHT22;31507;51.494;7.518;2024-01-15T10:19:23;0.30;99.90
45807;DHT22;31507;51.494;7.518;2024-01-15T10:21:48;0.40;99.90
45807;DHT22;31507;51.494;7.518;2024-01-15T10:24:14;0.40;99.90
45807;DHT22;31507;51.494;7.518;2024-01-15T10:26:39;0.40;99.90
45807;DHT22;31507;51.494;7.518;2024-01-15T10:29:05;0.40;99.90
45807;DHT22;31507;51.494;7.518;2024-01-15T10:31:31;0.40;99.90
45807;DHT22;31507;51.494;7.518;2024-01-15T10:34:12;0.50;99.90
45807;DHT22;31507;51.494;7.518;2024-01-15T10:36:41;0.50;99.90
45807;DHT22;31507;51.494;7.518;2024-01-15T10:39:06;0.50;99.90
45807;DHT22;31507;51.494;7.518;2024-01-15T10:41:33;0.50;99.90
45807;DHT22;31507;51.494;7.518;2024-01-15T10:43:58;0.60;99.90
45807;DHT22;31507;51.494;7.518;2024-01-15T10:46:24;0.50;99.90
45807;DHT22;31507;51.494;7.518;2024-01-15T10:48:49;0.50;99.90
45807;DHT22;31507;51.494;7.518;2024-01-15T10:51:15;0.50;99.90
45807;DHT22;31507;51.494;7.518;2024-01-15T10:53:41;0.50;99.90
45807;DHT22;31507;51.494;7.518;2024-01-15T10:56:07;0.50;99.90
45807;DHT22;31507;51.494;7.518;2024-01-15T10:58:35;0.50;99.90
45807;DHT22;31507;51.494;7.518;2024-01-15T11:01:02;0.50;99.90
45807;DHT22;31507;51.494;7.518;2024-01-15T11:03:30;0.50;99.90
45807;DHT22;31507;51.494;7.518;2024-01-15T11:05:55;0.50;99.90
45807;DHT22;31507;51.494;7.518;2024-01-15T11:08:21;0.50;99.90
45807;DHT22;31507;51.494;7.518;2024-01-15T11:10:47;0.50;99.90
45807;DHT22;31507;51.494;7.518;2024-01-15T11:13:21;0.50;99.90
45807;DHT22;31507;51.494;7.518;2024-01-15T11:16:05;0.50;99.90
45807;DHT22;31507;51.494;7.518;2024-01-15T11:18:32;0.50;99.90
45807;DHT22;31507;51.494;7.518;2024-01-15T11:23:46;0.70;99.90
45807;DHT22;31507;51.494;7.518;2024-01-15T11:28:55;0.70;99.90
45807;DHT22;31507;51.494;7.518;2024-01-15T11:31:28;0.80;99.90
45807;DHT22;31507;51.494;7.518;2024-01-15T11:33:53;0.80;99.90
45807;DHT22;31507;51.494;7.518;2024-01-15T11:36:20;0.80;99.90
45807;DHT22;31507;51.494;7.518;2024-01-15T11:38:46;0.90;99.90
45807;DHT22;31507;51.494;7.518;2024-01-15T11:41:14;1.00;99.90
45807;DHT22;31507;51.494;7.518;2024-01-15T11:43:43;0.90;99.90
45807;DHT22;31507;51.494;7.518;2024-01-15T11:46:11;0.90;99.90
45807;DHT22;31507;51.494;7.518;2024-01-15T11:48:43;0.70;99.90
45807;DHT22;31507;51.494;7.518;2024-01-15T11:51:10;0.70;99.90
45807;DHT22;31507;51.494;7.518;2024-01-15T11:53:37;0.80;99.90
45807;DHT22;31507;51.494;7.518;2024-01-15T11:56:06;0.80;99.90
45807;DHT22;31507;51.494;7.518;2024-01-15T11:58:37;0.70;99.90
45807;DHT22;31507;51.494;7.518;2024-01-15T12:01:02;0.70;99.90
45807;DHT22;31507;51.494;7.518;2024-01-15T12:03:28;0.80;99.90
45807;DHT22;31507;51.494;7.518;2024-01-15T12:05:58;0.80;99.90
45807;DHT22;31507;51.494;7.518;2024-01-15T12:08:25;0.80;99.90
45807;DHT22;31507;51.494;7.518;2024-01-15T12:10:52;0.70;99.90
45807;DHT22;31507;51.494;7.518;2024-01-15T12:13:18;0.70;99.90
45807;DHT22;31507;51.494;7.518;2024-01-15T12:15:44;0.70;99.90
45807;DHT22;31507;51.494;7.518;2024-01-15T12:18:11;0.70;99.90
45807;DHT22;31507;51.494;7.518;2024-01-15T12:20:37;0.70;99.90
45807;DHT22;31507;51.494;7.518;2024-01-15T12:23:02;0.70;99.90
45807;DHT22;31507;51.494;7.518;2024-01-15T12:25:31;0.70;99.90
45807;DHT22;31507;51.494;7.518;2024-01-15T12:27:57;0.80;99.90
45807;DHT22;31507;51.494;7.518;2024-01-15T12:30:23;0.80;99.90
45807;DHT22;31507;51.494;7.518;2024-01-15T12:32:49;0.80;99.90
45807;DHT22;31507;51.494;7.518;2024-01-15T12:35:15;0.90;99.90
45807;DHT22;31507;51.494;7.518;2024-01-15T12:37:41;0.90;99.90
45807;DHT22;31507;51.494;7.518;2024-01-15T12:40:08;1.00;99.90
45807;DHT22;31507;51.494;7.518;2024-01-15T12:42:44;1.10;99.90
45807;DHT22;31507;51.494;7.518;2024-01-15T12:45:09;1.10;99.90
45807;DHT22;31507;51.494;7.518;2024-01-15T12:47:36;1.10;99.90
45807;DHT22;31507;51.494;7.518;2024-01-15T12:50:02;1.10;99.90
45807;DHT22;31507;51.494;7.518;2024-01-15T12:52:28;1.30;99.90
45807;DHT22;31507;51.494;7.518;2024-01-15T12:54:54;1.40;99.90
45807;DHT22;31507;51.494;7.518;2024-01-15T12:57:19;1.40;99.90
45807;DHT22;31507;51.494;7.518;2024-01-15T12:59:48;1.20;99.90
45807;DHT22;31507;51.494;7.518;2024-01-15T13:02:15;1.10;99.90
45807;DHT22;31507;51.494;7.518;2024-01-15T13:04:41;1.10;99.90
45807;DHT22;31507;51.494;7.518;2024-01-15T13:07:07;1.00;99.90
45807;DHT22;31507;51.494;7.518;2024-01-15T13:09:33;1.00;99.90
45807;DHT22;31507;51.494;7.518;2024-01-15T13:11:59;1.00;99.90
45807;DHT22;31507;51.494;7.518;2024-01-15T13:14:24;1.00;99.90
45807;DHT22;31507;51.494;7.518;2024-01-15T13:16:50;0.90;99.90
45807;DHT22;31507;51.494;7.518;2024-01-15T13:19:15;1.00;99.90
45807;DHT22;31507;51.494;7.518;2024-01-15T13:21:41;0.90;99.90
45807;DHT22;31507;51.494;7.518;2024-01-15T13:24:06;0.90;99.90
45807;DHT22;31507;51.494;7.518;2024-01-15T13:26:32;1.00;99.90
45807;DHT22;31507;51.494;7.518;2024-01-15T13:28:59;1.00;99.90
45807;DHT22;31507;51.494;7.518;2024-01-15T13:31:25;1.00;99.90
45807;DHT22;31507;51.494;7.518;2024-01-15T13:33:50;1.10;99.90
45807;DHT22;31507;51.494;7.518;2024-01-15T13:36:16;1.00;99.90
45807;DHT22;31507;51.494;7.518;2024-01-15T13:38:41;1.00;99.90
45807;DHT22;31507;51.494;7.518;2024-01-15T13:41:07;1.00;99.90
45807;DHT22;31507;51.494;7.518;2024-01-15T13:43:32;1.00;99.90
45807;DHT22;31507;51.494;7.518;2024-01-15T13:45:58;0.90;99.90
45807;DHT22;31507;51.494;7.518;2024-01-15T13:48:24;0.90;99.90
45807;DHT22;31507;51.494;7.518;2024-01-15T13:50:49;0.90;99.90
45807;DHT22;31507;51.494;7.518;2024-01-15T13:53:16;0.90;99.90
45807;DHT22;31507;51.494;7.518;2024-01-15T13:55:41;1.00;99.90
45807;DHT22;31507;51.494;7.518;2024-01-15T13:58:07;1.00;99.90
45807;DHT22;31507;51.494;7.518;2024-01-15T14:00:32;1.00;99.90
45807;DHT22;31507;51.494;7.518;2024-01-15T14:02:58;1.00;99.90
45807;DHT22;31507;51.494;7.518;2024-01-15T14:05:24;1.00;99.90
45807;DHT22;31507;51.494;7.518;2024-01-15T14:07:49;1.10;99.90
45807;DHT22;31507;51.494;7.518;2024-01-15T14:10:15;1.00;99.90
45807;DHT22;31507;51.494;7.518;2024-01-15T14:12:40;1.00;99.90
45807;DHT22;31507;51.494;7.518;2024-01-15T14:15:06;1.00;99.90
45807;DHT22;31507;51.494;7.518;2024-01-15T14:17:32;1.00;99.90
45807;DHT22;31507;51.494;7.518;2024-01-15T14:19:58;1.00;99.90
45807;DHT22;31507;51.494;7.518;2024-01-15T14:22:23;1.00;99.90
45807;DHT22;31507;51.494;7.518;2024-01-15T14:24:49;1.00;99.90
45807;DHT22;31507;51.494;7.518;2024-01-15T14:27:16;1.10;99.90
45807;DHT22;31507;51.494;7.518;2024-01-15T14:29:41;1.10;99.90
45807;DHT22;31507;51.494;7.518;2024-01-15T14:32:07;1.00;99.90
45807;DHT22;31507;51.494;7.518;2024-01-15T14:34:32;1.00;99.90
45807;DHT22;31507;51.494;7.518;2024-01-15T14:36:58;0.80;99.90
45807;DHT22;31507;51.494;7.518;2024-01-15T14:39:23;0.90;99.90
45807;DHT22;31507;51.494;7.518;2024-01-15T14:41:49;0.90;99.90
45807;DHT22;31507;51.494;7.518;2024-01-15T14:44:15;0.80;99.90
45807;DHT22;31507;51.494;7.518;2024-01-15T14:46:40;0.80;99.90
45807;DHT22;31507;51.494;7.518;2024-01-15T14:49:06;0.70;99.90
45807;DHT22;31507;51.494;7.518;2024-01-15T14:51:31;0.70;99.90
45807;DHT22;31507;51.494;7.518;2024-01-15T14:53:57;0.70;99.90
45807;DHT22;31507;51.494;7.518;2024-01-15T14:56:23;0.70;99.90
45807;DHT22;31507;51.494;7.518;2024-01-15T14:58:48;0.80;99.90
45807;DHT22;31507;51.494;7.518;2024-01-15T15:01:14;0.80;99.90
45807;DHT22;31507;51.494;7.518;2024-01-15T15:03:39;0.80;99.90
45807;DHT22;31507;51.494;7.518;2024-01-15T15:06:05;0.80;99.90
45807;DHT22;31507;51.494;7.518;2024-01-15T15:08:33;0.80;99.90
45807;DHT22;31507;51.494;7.518;2024-01-15T15:10:58;0.80;99.90
45807;DHT22;31507;51.494;7.518;2024-01-15T15:13:25;0.80;99.90
45807;DHT22;31507;51.494;7.518;2024-01-15T15:15:51;0.80;99.90
45807;DHT22;31507;51.494;7.518;2024-01-15T15:18:17;0.90;99.90
45807;DHT22;31507;51.494;7.518;2024-01-15T15:20:44;0.90;99.90
45807;DHT22;31507;51.494;7.518;2024-01-15T15:23:10;0.90;99.90
45807;DHT22;31507;51.494;7.518;2024-01-15T15:25:36;0.80;99.90
45807;DHT22;31507;51.494;7.518;2024-01-15T15:28:02;0.80;99.90
45807;DHT22;31507;51.494;7.518;2024-01-15T15:30:32;0.80;99.90
45807;DHT22;31507;51.494;7.518;2024-01-15T15:32:58;0.80;99.90
45807;DHT22;31507;51.494;7.518;2024-01-15T15:35:23;0.70;99.90
45807;DHT22;31507;51.494;7.518;2024-01-15T15:37:49;0.80;99.90
45807;DHT22;31507;51.494;7.518;2024-01-15T15:40:14;0.80;99.90
45807;DHT22;31507;51.494;7.518;2024-01-15T15:42:40;0.80;99.90
45807;DHT22;31507;51.494;7.518;2024-01-15T15:45:05;0.70;99.90